createdAt,value
2023-04-18T00:00:12.789Z,7.40
2023-04-18T00:03:04.717Z,7.60
2023-04-18T00:05:33.462Z,9.00
2023-04-18T00:08:01.778Z,9.80
2023-04-18T00:10:30.114Z,7.40
2023-04-18T00:12:58.572Z,9.40
2023-04-18T00:15:29.400Z,8.20
2023-04-18T00:17:57.855Z,8.40
2023-04-18T00:20:26.401Z,6.90
2023-04-18T00:22:55.226Z,8.60
2023-04-18T00:25:24.096Z,7.60
2023-04-18T00:27:52.519Z,7.70
2023-04-18T00:30:21.525Z,7.70
2023-04-18T00:32:49.980Z,8.20
2023-04-18T00:35:19.948Z,7.50
2023-04-18T00:37:48.358Z,6.30
2023-04-18T00:40:17.717Z,8.80
2023-04-18T00:42:46.063Z,7.10
2023-04-18T00:45:15.881Z,7.30
2023-04-18T00:47:44.341Z,8.50
2023-04-18T00:50:13.465Z,8.10
2023-04-18T00:52:44.487Z,7.20
2023-04-18T00:55:13.137Z,8.00
2023-04-18T00:57:42.282Z,8.50
2023-04-18T01:00:11.256Z,7.50
2023-04-18T01:02:41.856Z,10.00
2023-04-18T01:05:10.663Z,8.90
2023-04-18T01:07:41.856Z,9.30
2023-04-18T01:10:10.979Z,7.90
2023-04-18T01:12:39.907Z,8.40
2023-04-18T01:15:08.876Z,9.30
2023-04-18T01:17:38.687Z,7.50
2023-04-18T01:20:08.127Z,7.40
2023-04-18T01:22:36.767Z,9.60
2023-04-18T01:25:09.557Z,8.50
2023-04-18T01:27:37.976Z,8.30
2023-04-18T01:30:07.108Z,8.10
2023-04-18T01:32:36.170Z,8.40
2023-04-18T01:35:05.160Z,7.00
2023-04-18T01:37:35.524Z,8.30
2023-04-18T01:40:04.930Z,7.20
2023-04-18T01:42:33.349Z,10.40
2023-04-18T01:45:01.746Z,8.10
2023-04-18T01:47:30.221Z,9.20
2023-04-18T01:49:58.623Z,7.70
2023-04-18T01:52:29.946Z,8.10
2023-04-18T01:54:58.312Z,7.20
2023-04-18T01:57:26.684Z,11.00
2023-04-18T01:59:55.257Z,7.70
2023-04-18T02:02:23.840Z,8.10
2023-04-18T02:04:53.460Z,11.10
2023-04-18T02:07:21.790Z,8.60
2023-04-18T02:09:50.266Z,9.60
2023-04-18T02:12:18.680Z,8.10
2023-04-18T02:14:53.374Z,8.10
2023-04-18T02:17:23.904Z,8.70
2023-04-18T02:19:52.482Z,7.40
2023-04-18T02:22:20.914Z,6.70
2023-04-18T02:24:49.353Z,8.50
2023-04-18T02:27:18.626Z,6.80
2023-04-18T02:29:47.132Z,7.50
2023-04-18T02:32:15.761Z,7.10
2023-04-18T02:34:46.034Z,7.80
2023-04-18T02:37:14.383Z,7.20
2023-04-18T02:39:42.773Z,8.50
2023-04-18T02:42:11.188Z,6.70
2023-04-18T02:44:39.657Z,8.70
2023-04-18T02:47:08.187Z,7.00
2023-04-18T02:49:38.446Z,8.50
2023-04-18T02:52:06.955Z,7.00
2023-04-18T02:54:35.571Z,7.60
2023-04-18T02:57:26.606Z,10.30
2023-04-18T03:00:18.507Z,6.60
2023-04-18T03:03:15.961Z,9.20
2023-04-18T03:06:19.939Z,5.70
2023-04-18T03:08:49.099Z,8.10
2023-04-18T03:11:17.759Z,7.30
2023-04-18T03:13:46.540Z,6.20
2023-04-18T03:16:15.494Z,7.40
2023-04-18T03:18:44.134Z,8.00
2023-04-18T03:21:15.020Z,7.00
2023-04-18T03:23:43.695Z,7.10
2023-04-18T03:26:14.145Z,8.70
2023-04-18T03:28:43.004Z,8.90
2023-04-18T03:31:11.638Z,7.30
2023-04-18T03:33:42.702Z,7.70
2023-04-18T03:36:19.295Z,9.10
2023-04-18T03:38:47.635Z,6.80
2023-04-18T03:41:16.099Z,9.10
2023-04-18T03:43:44.557Z,7.60
2023-04-18T03:46:13.498Z,7.50
2023-04-18T03:48:42.079Z,7.50
2023-04-18T03:51:12.494Z,6.60
2023-04-18T03:53:41.275Z,6.80
2023-04-18T03:56:09.761Z,7.40
2023-04-18T03:59:16.620Z,7.40
2023-04-18T04:01:49.827Z,6.20
2023-04-18T04:04:19.589Z,6.70
2023-04-18T04:06:48.120Z,9.00
2023-04-18T04:09:18.022Z,6.20
2023-04-18T04:11:46.424Z,8.20
2023-04-18T04:14:15.816Z,6.20
2023-04-18T04:16:46.816Z,7.10
2023-04-18T04:19:17.349Z,6.00
2023-04-18T04:22:13.098Z,6.70
2023-04-18T04:24:42.982Z,7.70
2023-04-18T04:27:13.924Z,7.10
2023-04-18T04:29:43.951Z,6.80
2023-04-18T04:32:14.160Z,8.00
2023-04-18T04:34:42.584Z,8.80
2023-04-18T04:37:14.366Z,6.70
2023-04-18T04:40:10.493Z,9.30
2023-04-18T04:42:49.392Z,7.90
2023-04-18T04:45:24.368Z,7.00
2023-04-18T04:47:53.669Z,6.20
2023-04-18T04:50:22.245Z,6.00
2023-04-18T04:52:50.654Z,6.50
2023-04-18T04:55:19.252Z,6.40
2023-04-18T04:57:48.082Z,6.20
2023-04-18T05:00:36.843Z,7.20
2023-04-18T05:03:05.542Z,9.00
2023-04-18T05:05:34.201Z,6.90
2023-04-18T05:08:02.931Z,8.10
2023-04-18T05:10:31.528Z,9.10
2023-04-18T05:12:59.947Z,8.00
2023-04-18T05:15:28.405Z,8.30
2023-04-18T05:17:57.798Z,7.00
2023-04-18T05:20:26.340Z,6.90
2023-04-18T05:22:54.869Z,7.30
2023-04-18T05:25:23.311Z,7.20
2023-04-18T05:27:52.193Z,6.70
2023-04-18T05:30:20.754Z,6.10
2023-04-18T05:32:49.299Z,7.60
2023-04-18T05:35:17.913Z,7.60
2023-04-18T05:37:46.362Z,6.70
2023-04-18T05:40:14.958Z,6.30
2023-04-18T05:42:43.461Z,6.20
2023-04-18T05:45:12.051Z,7.70
2023-04-18T05:47:40.711Z,9.50
2023-04-18T05:50:09.656Z,7.60
2023-04-18T05:52:39.292Z,5.70
2023-04-18T05:55:08.306Z,6.70
2023-04-18T05:57:36.768Z,7.70
2023-04-18T06:00:11.732Z,8.00
2023-04-18T06:02:43.324Z,6.60
2023-04-18T06:05:13.293Z,6.60
2023-04-18T06:07:42.889Z,7.40
2023-04-18T06:10:13.671Z,8.90
2023-04-18T06:12:42.699Z,8.10
2023-04-18T06:15:11.605Z,6.40
2023-04-18T06:17:40.171Z,7.30
2023-04-18T06:20:10.131Z,9.30
2023-04-18T06:22:38.666Z,7.80
2023-04-18T06:25:09.119Z,7.50
2023-04-18T06:27:38.580Z,9.30
2023-04-18T06:30:08.607Z,7.50
2023-04-18T06:32:37.232Z,6.40
2023-04-18T06:35:06.869Z,6.50
2023-04-18T06:37:35.478Z,9.70
2023-04-18T06:40:04.488Z,8.30
2023-04-18T06:42:32.889Z,8.10
2023-04-18T06:45:01.319Z,7.60
2023-04-18T06:47:30.660Z,8.90
2023-04-18T06:49:59.030Z,8.30
2023-04-18T06:52:27.717Z,6.90
2023-04-18T06:54:56.261Z,9.20
2023-04-18T06:57:24.822Z,7.10
2023-04-18T06:59:53.278Z,7.40
2023-04-18T07:02:21.832Z,5.00
2023-04-18T07:04:50.481Z,7.20
2023-04-18T07:07:18.955Z,6.80
2023-04-18T07:09:47.419Z,7.10
2023-04-18T07:12:16.745Z,5.90
2023-04-18T07:14:45.180Z,6.20
2023-04-18T07:17:14.230Z,7.40
2023-04-18T07:19:42.874Z,6.80
2023-04-18T07:22:11.528Z,7.50
2023-04-18T07:24:40.341Z,5.70
2023-04-18T07:27:10.130Z,5.90
2023-04-18T07:29:38.595Z,8.20
2023-04-18T07:32:08.369Z,9.80
2023-04-18T07:34:37.794Z,6.50
2023-04-18T07:37:07.214Z,5.50
2023-04-18T07:39:36.699Z,6.00
2023-04-18T07:42:05.358Z,6.30
2023-04-18T07:44:35.626Z,5.10
2023-04-18T07:47:04.507Z,5.90
2023-04-18T07:49:33.459Z,6.50
2023-04-18T07:52:02.066Z,7.80
2023-04-18T07:54:36.867Z,7.60
2023-04-18T07:57:05.406Z,10.20
2023-04-18T07:59:33.868Z,8.00
2023-04-18T08:02:02.826Z,7.10
2023-04-18T08:04:31.494Z,5.30
2023-04-18T08:07:00.045Z,5.20
2023-04-18T08:09:28.621Z,7.40
2023-04-18T08:11:58.212Z,7.40
2023-04-18T08:14:26.707Z,8.20
2023-04-18T08:16:55.185Z,10.00
2023-04-18T08:20:05.321Z,6.40
2023-04-18T08:22:34.414Z,5.30
2023-04-18T08:25:05.575Z,7.00
2023-04-18T08:27:34.386Z,4.90
2023-04-18T08:30:04.673Z,8.50
2023-04-18T08:32:33.237Z,6.20
2023-04-18T08:35:01.762Z,7.10
2023-04-18T08:37:31.743Z,10.60
2023-04-18T08:40:00.142Z,5.60
2023-04-18T08:42:29.893Z,8.70
2023-04-18T08:45:01.733Z,6.80
2023-04-18T08:47:33.570Z,7.20
2023-04-18T08:50:02.669Z,7.40
2023-04-18T08:52:32.857Z,5.50
2023-04-18T08:55:04.106Z,6.90
2023-04-18T08:57:33.518Z,9.00
2023-04-18T09:00:02.155Z,9.90
2023-04-18T09:02:42.977Z,8.50
2023-04-18T09:05:19.145Z,6.00
2023-04-18T09:07:53.272Z,4.40
2023-04-18T09:10:33.284Z,14.50
2023-04-18T09:13:04.599Z,5.60
2023-04-18T09:15:33.208Z,6.40
2023-04-18T09:18:06.020Z,7.60
2023-04-18T09:20:44.119Z,8.80
2023-04-18T09:26:40.201Z,5.90
2023-04-18T09:29:08.766Z,7.70
2023-04-18T09:32:15.755Z,6.60
2023-04-18T09:34:44.214Z,9.30
2023-04-18T09:37:14.152Z,6.40
2023-04-18T09:39:44.724Z,7.10
2023-04-18T09:42:14.171Z,8.90
2023-04-18T09:44:59.882Z,6.00
2023-04-18T09:47:28.566Z,4.70
2023-04-18T09:49:57.394Z,6.60
2023-04-18T09:52:26.358Z,5.40
2023-04-18T09:54:59.437Z,5.80
2023-04-18T09:57:30.038Z,7.10
2023-04-18T10:00:10.911Z,6.00
2023-04-18T10:02:50.734Z,8.70
2023-04-18T10:05:22.225Z,5.30
2023-04-18T10:07:51.369Z,6.50
2023-04-18T10:10:20.274Z,7.50
2023-04-18T10:12:51.061Z,5.10
2023-04-18T10:15:22.864Z,6.30
2023-04-18T10:18:04.533Z,5.60
2023-04-18T10:20:35.672Z,8.00
2023-04-18T10:23:32.612Z,7.20
2023-04-18T10:26:05.797Z,8.10
2023-04-18T10:28:56.896Z,8.60
2023-04-18T10:31:28.350Z,6.70
2023-04-18T10:34:05.111Z,9.40
2023-04-18T10:36:34.577Z,5.90
2023-04-18T10:39:25.805Z,5.70
2023-04-18T10:41:54.449Z,6.40
2023-04-18T10:44:24.211Z,6.70
2023-04-18T10:46:52.800Z,5.50
2023-04-18T10:49:26.218Z,6.90
2023-04-18T10:52:00.569Z,16.70
2023-04-18T10:54:50.232Z,8.90
2023-04-18T10:57:18.674Z,7.10
2023-04-18T10:59:52.834Z,6.80
2023-04-18T11:02:30.342Z,6.10
2023-04-18T11:05:01.848Z,11.80
2023-04-18T11:07:40.348Z,6.70
2023-04-18T11:10:10.029Z,8.00
2023-04-18T11:12:40.977Z,8.10
2023-04-18T11:15:34.837Z,8.50
2023-04-18T11:18:05.089Z,11.20
2023-04-18T11:20:46.357Z,6.40
2023-04-18T11:23:21.423Z,9.20
2023-04-18T11:25:53.711Z,9.20
2023-04-18T11:28:22.559Z,9.30
2023-04-18T11:30:51.213Z,7.30
2023-04-18T11:33:19.694Z,5.90
2023-04-18T11:35:48.099Z,5.30
2023-04-18T11:38:16.924Z,7.90
2023-04-18T11:40:51.658Z,9.80
2023-04-18T11:43:25.277Z,7.10
2023-04-18T11:45:57.676Z,6.00
2023-04-18T11:48:43.471Z,10.80
2023-04-18T11:51:32.591Z,6.80
2023-04-18T11:54:01.113Z,8.00
2023-04-18T11:56:29.900Z,5.90
2023-04-18T11:58:58.376Z,5.20
2023-04-18T12:01:27.464Z,7.20
2023-04-18T12:04:05.172Z,4.80
2023-04-18T12:06:54.025Z,10.70
2023-04-18T12:09:25.088Z,9.50
2023-04-18T12:12:01.829Z,7.10
2023-04-18T12:14:31.068Z,7.40
2023-04-18T12:16:59.521Z,9.80
2023-04-18T12:19:30.317Z,8.40
2023-04-18T12:22:00.957Z,10.10
2023-04-18T12:24:29.369Z,5.90
2023-04-18T12:26:58.428Z,6.60
2023-04-18T12:29:28.458Z,11.80
2023-04-18T12:31:57.055Z,6.40
2023-04-18T12:34:25.917Z,8.40
2023-04-18T12:36:54.534Z,8.80
2023-04-18T12:39:23.127Z,6.30
2023-04-18T12:41:51.535Z,7.80
2023-04-18T12:44:19.966Z,7.90
2023-04-18T12:46:48.479Z,7.20
2023-04-18T12:49:16.956Z,9.60
2023-04-18T12:51:45.656Z,7.70
2023-04-18T12:54:14.390Z,8.90
2023-04-18T12:56:43.005Z,8.00
2023-04-18T12:59:11.551Z,11.50
2023-04-18T13:01:40.212Z,8.00
2023-04-18T13:04:13.047Z,8.00
2023-04-18T13:06:42.227Z,7.90
2023-04-18T13:09:11.233Z,9.90
2023-04-18T13:11:39.813Z,7.90
2023-04-18T13:14:08.231Z,6.70
2023-04-18T13:16:36.756Z,9.00
2023-04-18T13:19:05.203Z,6.50
2023-04-18T13:21:33.591Z,7.30
2023-04-18T13:24:02.122Z,9.20
2023-04-18T13:26:31.228Z,9.50
2023-04-18T13:28:59.715Z,9.80
2023-04-18T13:31:29.301Z,7.90
2023-04-18T13:34:36.829Z,6.00
2023-04-18T13:37:06.715Z,8.00
2023-04-18T13:39:35.164Z,6.50
2023-04-18T13:42:04.623Z,9.50
2023-04-18T13:44:33.555Z,5.50
2023-04-18T13:47:03.386Z,7.20
2023-04-18T13:49:36.277Z,7.70
2023-04-18T13:52:05.797Z,6.20
2023-04-18T13:54:34.295Z,10.10
2023-04-18T13:57:03.566Z,9.30
2023-04-18T13:59:32.805Z,8.40
2023-04-18T14:02:01.412Z,7.30
2023-04-18T14:04:32.159Z,8.80
2023-04-18T14:07:01.648Z,8.60
2023-04-18T14:09:30.327Z,11.20
2023-04-18T14:11:59.424Z,9.90
2023-04-18T14:14:28.250Z,6.90
2023-04-18T14:16:56.916Z,10.20
2023-04-18T14:19:25.509Z,10.00
2023-04-18T14:21:56.419Z,7.60
2023-04-18T14:24:24.912Z,5.30
2023-04-18T14:26:53.480Z,8.90
2023-04-18T14:29:22.175Z,6.80
2023-04-18T14:31:50.682Z,12.30
2023-04-18T14:34:19.129Z,7.40
2023-04-18T14:36:47.601Z,7.70
2023-04-18T14:39:16.201Z,8.40
2023-04-18T14:41:46.073Z,7.10
2023-04-18T14:44:14.509Z,9.50
2023-04-18T14:46:43.331Z,8.80
2023-04-18T14:49:12.191Z,5.70
2023-04-18T14:51:40.788Z,10.00
2023-04-18T14:54:09.354Z,7.00
2023-04-18T14:56:37.723Z,7.00
2023-04-18T14:59:06.418Z,13.50
2023-04-18T15:01:34.941Z,9.70
2023-04-18T15:04:04.639Z,9.10
2023-04-18T15:06:33.643Z,8.80
2023-04-18T15:09:02.160Z,7.50
2023-04-18T15:11:30.799Z,6.20
2023-04-18T15:13:59.349Z,6.30
2023-04-18T15:16:27.873Z,8.30
2023-04-18T15:18:56.345Z,8.60
2023-04-18T15:21:24.897Z,8.30
2023-04-18T15:23:53.293Z,9.40
2023-04-18T15:26:21.670Z,8.00
2023-04-18T15:28:50.580Z,7.60
2023-04-18T15:31:19.004Z,7.40
2023-04-18T15:33:47.714Z,6.40
2023-04-18T15:36:16.163Z,7.70
2023-04-18T15:38:44.570Z,7.10
2023-04-18T15:41:13.203Z,8.30
2023-04-18T15:43:42.243Z,8.70
2023-04-18T15:46:10.919Z,9.50
2023-04-18T15:48:39.368Z,8.10
2023-04-18T15:51:07.968Z,8.00
2023-04-18T15:53:36.368Z,7.90
2023-04-18T15:56:06.276Z,13.80
2023-04-18T15:58:34.957Z,8.30
2023-04-18T16:01:04.638Z,9.20
2023-04-18T16:03:33.383Z,11.10
2023-04-18T16:06:02.198Z,9.10
2023-04-18T16:08:33.071Z,8.20
2023-04-18T16:11:01.819Z,10.00
2023-04-18T16:13:30.187Z,11.30
2023-04-18T16:15:58.698Z,9.10
2023-04-18T16:18:27.167Z,12.20
2023-04-18T16:20:55.764Z,10.40
2023-04-18T16:23:25.223Z,8.10
2023-04-18T16:25:55.442Z,9.40
2023-04-18T16:28:23.959Z,10.80
2023-04-18T16:30:54.820Z,9.00
2023-04-18T16:33:26.316Z,11.50
2023-04-18T16:35:58.973Z,11.30
2023-04-18T16:38:27.647Z,11.30
2023-04-18T16:40:57.730Z,9.60
2023-04-18T16:43:31.212Z,16.50
2023-04-18T16:46:00.754Z,9.40
2023-04-18T16:48:29.458Z,10.40
2023-04-18T16:50:58.050Z,9.70
2023-04-18T16:53:26.491Z,10.30
2023-04-18T16:55:54.904Z,11.10
2023-04-18T16:58:23.795Z,10.80
2023-04-18T17:00:54.915Z,9.70
2023-04-18T17:03:23.785Z,11.00
2023-04-18T17:05:52.198Z,8.10
2023-04-18T17:08:20.699Z,10.60
2023-04-18T17:10:53.050Z,9.40
2023-04-18T17:13:27.151Z,10.60
2023-04-18T17:15:55.728Z,11.30
2023-04-18T17:18:24.876Z,12.00
2023-04-18T17:20:53.328Z,12.20
2023-04-18T17:23:22.170Z,11.20
2023-04-18T17:25:50.563Z,12.20
2023-04-18T17:28:19.113Z,11.50
2023-04-18T17:30:47.616Z,13.10
2023-04-18T17:33:16.097Z,17.70
2023-04-18T17:35:45.100Z,10.60
2023-04-18T17:38:13.612Z,14.60
2023-04-18T17:40:42.100Z,12.90
2023-04-18T17:43:12.094Z,13.40
2023-04-18T17:45:40.682Z,14.20
2023-04-18T17:48:09.457Z,13.50
2023-04-18T17:50:38.348Z,15.70
2023-04-18T17:53:06.753Z,14.10
2023-04-18T17:55:35.793Z,13.30
2023-04-18T17:58:05.353Z,15.60
2023-04-18T18:00:33.728Z,11.30
2023-04-18T18:06:21.341Z,12.60
2023-04-18T18:08:49.702Z,12.10
2023-04-18T18:11:18.262Z,10.80
2023-04-18T18:13:46.875Z,13.90
2023-04-18T18:16:15.376Z,13.80
2023-04-18T18:18:44.085Z,11.20
2023-04-18T18:21:12.602Z,12.80
2023-04-18T18:23:41.838Z,13.40
2023-04-18T18:26:12.029Z,11.20
2023-04-18T18:28:40.452Z,12.40
2023-04-18T18:31:08.962Z,13.70
2023-04-18T18:33:37.453Z,13.60
2023-04-18T18:36:07.085Z,14.60
2023-04-18T18:38:36.685Z,18.30
2023-04-18T18:41:05.847Z,14.60
2023-04-18T18:43:34.524Z,17.40
2023-04-18T18:46:03.237Z,14.80
2023-04-18T18:48:33.104Z,13.00
2023-04-18T18:51:01.622Z,11.40
2023-04-18T18:53:30.213Z,14.00
2023-04-18T18:55:58.615Z,15.90
2023-04-18T18:58:27.469Z,11.30
2023-04-18T19:00:56.473Z,11.50
2023-04-18T19:03:25.546Z,11.00
2023-04-18T19:05:54.609Z,12.20
2023-04-18T19:08:23.155Z,12.90
2023-04-18T19:10:51.677Z,12.80
2023-04-18T19:13:22.882Z,12.30
2023-04-18T19:15:52.009Z,13.50
2023-04-18T19:18:20.574Z,14.60
2023-04-18T19:20:50.880Z,13.80
2023-04-18T19:23:19.740Z,13.50
2023-04-18T19:25:48.236Z,15.60
2023-04-18T19:28:18.496Z,15.40
2023-04-18T19:30:46.940Z,13.40
2023-04-18T19:33:15.628Z,16.20
2023-04-18T19:35:44.009Z,15.60
2023-04-18T19:38:12.538Z,13.50
2023-04-18T19:40:40.862Z,13.60
2023-04-18T19:43:09.347Z,14.30
2023-04-18T19:45:38.345Z,17.10
2023-04-18T19:48:06.906Z,14.90
2023-04-18T19:50:35.557Z,13.30
2023-04-18T19:53:04.129Z,13.10
2023-04-18T19:55:32.578Z,15.00
2023-04-18T19:58:01.058Z,12.90
2023-04-18T20:00:29.705Z,15.30
2023-04-18T20:02:59.207Z,19.40
2023-04-18T20:05:27.912Z,15.30
2023-04-18T20:12:00.557Z,15.40
2023-04-18T20:14:29.742Z,17.00
2023-04-18T20:16:58.486Z,18.20
2023-04-18T20:19:27.023Z,18.40
2023-04-18T20:21:55.501Z,15.60
2023-04-18T20:24:24.030Z,21.00
2023-04-18T20:26:54.607Z,16.70
2023-04-18T20:29:23.028Z,16.60
2023-04-18T20:31:52.350Z,20.50
2023-04-18T20:34:20.847Z,19.10
2023-04-18T20:36:50.170Z,17.70
2023-04-18T20:39:18.750Z,16.90
2023-04-18T20:41:51.562Z,16.00
2023-04-18T20:44:22.252Z,16.20
2023-04-18T20:46:53.572Z,18.40
2023-04-18T20:49:21.994Z,18.80
2023-04-18T20:51:50.465Z,17.40
2023-04-18T20:54:18.964Z,20.00
2023-04-18T20:56:47.334Z,17.90
2023-04-18T20:59:15.733Z,20.90
2023-04-18T21:01:44.291Z,17.90
2023-04-18T21:04:13.093Z,18.40
2023-04-18T21:06:42.142Z,18.70
2023-04-18T21:09:10.652Z,18.60
2023-04-18T21:11:39.060Z,18.80
2023-04-18T21:14:07.557Z,17.90
2023-04-18T21:16:39.541Z,20.60
2023-04-18T21:19:08.872Z,21.20
2023-04-18T21:21:37.395Z,21.00
2023-04-18T21:24:06.089Z,18.70
2023-04-18T21:26:34.527Z,18.80
2023-04-18T21:29:06.621Z,19.80
2023-04-18T21:31:35.722Z,18.50
2023-04-18T21:34:05.473Z,20.40
2023-04-18T21:36:34.030Z,17.10
2023-04-18T21:39:02.679Z,19.80
2023-04-18T21:41:31.055Z,18.80
2023-04-18T21:44:02.945Z,18.50
2023-04-18T21:46:31.430Z,19.80
2023-04-18T21:48:59.886Z,22.00
2023-04-18T21:51:28.478Z,18.30
2023-04-18T21:53:56.892Z,23.70
2023-04-18T21:56:25.327Z,20.30
2023-04-18T21:58:53.694Z,21.30
2023-04-18T22:01:22.456Z,20.80
2023-04-18T22:03:51.671Z,22.70
2023-04-18T22:06:21.087Z,18.90
2023-04-18T22:08:50.221Z,21.00
2023-04-18T22:11:19.253Z,26.10
2023-04-18T22:13:47.655Z,23.70
2023-04-18T22:16:16.365Z,22.60
2023-04-18T22:18:44.780Z,20.10
2023-04-18T22:21:13.309Z,21.60
2023-04-18T22:23:41.754Z,24.40
2023-04-18T22:26:10.285Z,24.30
2023-04-18T22:28:38.742Z,22.70
2023-04-18T22:31:07.253Z,21.80
2023-04-18T22:33:36.049Z,21.60
2023-04-18T22:36:04.836Z,20.00
2023-04-18T22:38:33.245Z,21.90
2023-04-18T22:41:01.622Z,21.10
2023-04-18T22:43:30.802Z,20.60
2023-04-18T22:49:40.674Z,20.30
2023-04-18T22:52:08.986Z,21.10
2023-04-18T22:54:40.680Z,18.10
2023-04-18T22:57:09.037Z,18.90
2023-04-18T22:59:37.565Z,20.20
2023-04-18T23:02:06.247Z,19.80
2023-04-18T23:04:34.852Z,21.20
2023-04-18T23:07:03.305Z,19.50
2023-04-18T23:09:31.725Z,17.30
2023-04-18T23:12:00.073Z,18.10
2023-04-18T23:14:29.080Z,19.20
2023-04-18T23:16:57.512Z,18.90
2023-04-18T23:19:26.128Z,22.20
2023-04-18T23:21:54.500Z,19.00
2023-04-18T23:24:22.936Z,17.80
2023-04-18T23:26:51.330Z,21.90
2023-04-18T23:29:19.645Z,20.00
2023-04-18T23:31:48.039Z,25.50
2023-04-18T23:34:16.695Z,25.30
2023-04-18T23:36:45.343Z,16.70
2023-04-18T23:39:13.820Z,17.10
2023-04-18T23:41:42.130Z,19.70
2023-04-18T23:44:10.671Z,20.10
2023-04-18T23:46:39.090Z,21.40
2023-04-18T23:49:55.647Z,18.60
2023-04-18T23:52:23.996Z,21.40
2023-04-18T23:54:52.581Z,21.00
2023-04-18T23:57:20.967Z,17.60
2023-04-18T23:59:49.387Z,18.30
